sensor_id;sensor_type;location;lat;lon;timestamp;P1;durP1;ratioP1;P2;durP2;ratioP2
65567;SDS011;52211;50.154;8.682;2023-04-24T00:01:33;0.93;;;0.93;;
65567;SDS011;52211;50.154;8.682;2023-04-24T00:04:03;1.03;;;1.03;;
65567;SDS011;52211;50.154;8.682;2023-04-24T00:06:33;1.53;;;1.10;;
65567;SDS011;52211;50.154;8.682;2023-04-24T00:09:03;1.00;;;1.00;;
65567;SDS011;52211;50.154;8.682;2023-04-24T00:11:30;1.90;;;1.30;;
65567;SDS011;52211;50.154;8.682;2023-04-24T00:13:59;1.30;;;1.20;;
65567;SDS011;52211;50.154;8.682;2023-04-24T00:16:26;2.07;;;1.87;;
65567;SDS011;52211;50.154;8.682;2023-04-24T00:18:58;1.60;;;1.50;;
65567;SDS011;52211;50.154;8.682;2023-04-24T00:21:29;1.40;;;1.30;;
65567;SDS011;52211;50.154;8.682;2023-04-24T00:23:58;1.00;;;1.00;;
65567;SDS011;52211;50.154;8.682;2023-04-24T00:26:28;1.27;;;1.10;;
65567;SDS011;52211;50.154;8.682;2023-04-24T00:28:55;1.60;;;0.93;;
65567;SDS011;52211;50.154;8.682;2023-04-24T00:31:25;2.73;;;1.30;;
65567;SDS011;52211;50.154;8.682;2023-04-24T00:33:55;2.27;;;1.30;;
65567;SDS011;52211;50.154;8.682;2023-04-24T00:36:22;1.20;;;1.20;;
65567;SDS011;52211;50.154;8.682;2023-04-24T00:39:01;1.00;;;1.00;;
65567;SDS011;52211;50.154;8.682;2023-04-24T00:41:32;1.30;;;1.20;;
65567;SDS011;52211;50.154;8.682;2023-04-24T00:43:59;1.63;;;1.10;;
65567;SDS011;52211;50.154;8.682;2023-04-24T00:46:28;1.50;;;1.00;;
65567;SDS011;52211;50.154;8.682;2023-04-24T00:49:01;1.00;;;1.00;;
65567;SDS011;52211;50.154;8.682;2023-04-24T00:51:28;1.10;;;1.10;;
65567;SDS011;52211;50.154;8.682;2023-04-24T00:53:59;1.23;;;1.23;;
65567;SDS011;52211;50.154;8.682;2023-04-24T00:56:27;1.47;;;1.10;;
65567;SDS011;52211;50.154;8.682;2023-04-24T00:58:55;1.17;;;1.13;;
65567;SDS011;52211;50.154;8.682;2023-04-24T01:01:25;1.83;;;1.70;;
65567;SDS011;52211;50.154;8.682;2023-04-24T01:03:52;1.10;;;1.10;;
65567;SDS011;52211;50.154;8.682;2023-04-24T01:06:23;1.80;;;1.17;;
65567;SDS011;52211;50.154;8.682;2023-04-24T01:08:55;0.93;;;0.93;;
65567;SDS011;52211;50.154;8.682;2023-04-24T01:11:22;1.87;;;1.70;;
65567;SDS011;52211;50.154;8.682;2023-04-24T01:13:54;1.20;;;1.10;;
65567;SDS011;52211;50.154;8.682;2023-04-24T01:16:24;1.37;;;1.10;;
65567;SDS011;52211;50.154;8.682;2023-04-24T01:18:52;1.00;;;1.00;;
65567;SDS011;52211;50.154;8.682;2023-04-24T01:21:22;1.77;;;1.20;;
65567;SDS011;52211;50.154;8.682;2023-04-24T01:23:56;1.70;;;1.30;;
65567;SDS011;52211;50.154;8.682;2023-04-24T01:26:25;1.53;;;1.20;;
65567;SDS011;52211;50.154;8.682;2023-04-24T01:28:56;2.20;;;1.20;;
65567;SDS011;52211;50.154;8.682;2023-04-24T01:31:28;1.00;;;1.00;;
65567;SDS011;52211;50.154;8.682;2023-04-24T01:33:56;4.10;;;1.10;;
65567;SDS011;52211;50.154;8.682;2023-04-24T01:36:26;1.07;;;1.03;;
65567;SDS011;52211;50.154;8.682;2023-04-24T01:38:58;1.17;;;1.07;;
65567;SDS011;52211;50.154;8.682;2023-04-24T01:41:25;1.07;;;0.97;;
65567;SDS011;52211;50.154;8.682;2023-04-24T01:43:57;1.50;;;1.10;;
65567;SDS011;52211;50.154;8.682;2023-04-24T01:46:34;1.00;;;1.00;;
65567;SDS011;52211;50.154;8.682;2023-04-24T01:49:04;0.90;;;0.90;;
65567;SDS011;52211;50.154;8.682;2023-04-24T01:51:37;1.37;;;1.17;;
65567;SDS011;52211;50.154;8.682;2023-04-24T01:54:04;1.47;;;1.00;;
65567;SDS011;52211;50.154;8.682;2023-04-24T01:56:35;1.03;;;1.00;;
65567;SDS011;52211;50.154;8.682;2023-04-24T01:59:09;1.27;;;1.00;;
65567;SDS011;52211;50.154;8.682;2023-04-24T02:01:41;1.67;;;1.10;;
65567;SDS011;52211;50.154;8.682;2023-04-24T02:04:10;1.37;;;1.20;;
65567;SDS011;52211;50.154;8.682;2023-04-24T02:06:45;1.27;;;1.20;;
65567;SDS011;52211;50.154;8.682;2023-04-24T02:09:14;2.83;;;2.20;;
65567;SDS011;52211;50.154;8.682;2023-04-24T02:11:45;1.33;;;1.20;;
65567;SDS011;52211;50.154;8.682;2023-04-24T02:14:12;1.10;;;1.10;;
65567;SDS011;52211;50.154;8.682;2023-04-24T02:16:39;2.00;;;1.27;;
65567;SDS011;52211;50.154;8.682;2023-04-24T02:19:10;1.20;;;1.20;;
65567;SDS011;52211;50.154;8.682;2023-04-24T02:21:37;1.07;;;1.03;;
65567;SDS011;52211;50.154;8.682;2023-04-24T02:24:07;1.10;;;1.10;;
65567;SDS011;52211;50.154;8.682;2023-04-24T02:26:36;1.43;;;1.30;;
65567;SDS011;52211;50.154;8.682;2023-04-24T02:29:06;1.53;;;1.33;;
65567;SDS011;52211;50.154;8.682;2023-04-24T02:31:35;1.30;;;1.30;;
65567;SDS011;52211;50.154;8.682;2023-04-24T02:34:02;1.13;;;1.07;;
65567;SDS011;52211;50.154;8.682;2023-04-24T02:36:31;1.30;;;1.20;;
65567;SDS011;52211;50.154;8.682;2023-04-24T02:39:00;1.13;;;1.13;;
65567;SDS011;52211;50.154;8.682;2023-04-24T02:41:34;1.13;;;1.13;;
65567;SDS011;52211;50.154;8.682;2023-04-24T02:44:06;2.20;;;1.00;;
65567;SDS011;52211;50.154;8.682;2023-04-24T02:46:36;1.83;;;1.20;;
65567;SDS011;52211;50.154;8.682;2023-04-24T02:49:08;1.03;;;1.03;;
65567;SDS011;52211;50.154;8.682;2023-04-24T02:51:40;1.00;;;1.00;;
65567;SDS011;52211;50.154;8.682;2023-04-24T02:54:08;1.30;;;1.30;;
65567;SDS011;52211;50.154;8.682;2023-04-24T02:56:38;1.00;;;1.00;;
65567;SDS011;52211;50.154;8.682;2023-04-24T02:59:09;1.30;;;1.20;;
65567;SDS011;52211;50.154;8.682;2023-04-24T03:01:36;1.23;;;1.23;;
65567;SDS011;52211;50.154;8.682;2023-04-24T03:04:03;1.00;;;1.00;;
65567;SDS011;52211;50.154;8.682;2023-04-24T03:06:31;1.37;;;1.00;;
65567;SDS011;52211;50.154;8.682;2023-04-24T03:09:04;1.77;;;1.10;;
65567;SDS011;52211;50.154;8.682;2023-04-24T03:11:31;1.00;;;1.00;;
65567;SDS011;52211;50.154;8.682;2023-04-24T03:13:59;1.27;;;1.17;;
65567;SDS011;52211;50.154;8.682;2023-04-24T03:16:28;1.03;;;1.00;;
65567;SDS011;52211;50.154;8.682;2023-04-24T03:18:55;0.90;;;0.90;;
65567;SDS011;52211;50.154;8.682;2023-04-24T03:21:27;0.80;;;0.80;;
65567;SDS011;52211;50.154;8.682;2023-04-24T03:23:58;1.20;;;1.10;;
65567;SDS011;52211;50.154;8.682;2023-04-24T03:26:29;1.10;;;1.00;;
65567;SDS011;52211;50.154;8.682;2023-04-24T03:29:08;0.77;;;0.77;;
65567;SDS011;52211;50.154;8.682;2023-04-24T03:31:41;1.23;;;1.20;;
65567;SDS011;52211;50.154;8.682;2023-04-24T03:34:10;1.13;;;1.00;;
65567;SDS011;52211;50.154;8.682;2023-04-24T03:36:37;2.17;;;1.07;;
65567;SDS011;52211;50.154;8.682;2023-04-24T03:39:07;1.70;;;1.00;;
65567;SDS011;52211;50.154;8.682;2023-04-24T03:41:36;1.00;;;1.00;;
65567;SDS011;52211;50.154;8.682;2023-04-24T03:44:18;1.03;;;1.00;;
65567;SDS011;52211;50.154;8.682;2023-04-24T03:46:47;1.10;;;1.10;;
65567;SDS011;52211;50.154;8.682;2023-04-24T03:49:22;1.57;;;0.90;;
65567;SDS011;52211;50.154;8.682;2023-04-24T03:51:52;1.00;;;1.00;;
65567;SDS011;52211;50.154;8.682;2023-04-24T03:54:24;1.20;;;1.00;;
65567;SDS011;52211;50.154;8.682;2023-04-24T03:56:53;0.90;;;0.90;;
65567;SDS011;52211;50.154;8.682;2023-04-24T03:59:21;2.00;;;1.47;;
65567;SDS011;52211;50.154;8.682;2023-04-24T04:01:59;0.90;;;0.90;;
65567;SDS011;52211;50.154;8.682;2023-04-24T04:04:26;1.13;;;1.00;;
65567;SDS011;52211;50.154;8.682;2023-04-24T04:06:56;1.60;;;1.10;;
65567;SDS011;52211;50.154;8.682;2023-04-24T04:09:29;0.83;;;0.83;;
65567;SDS011;52211;50.154;8.682;2023-04-24T04:11:56;1.07;;;0.97;;
65567;SDS011;52211;50.154;8.682;2023-04-24T04:14:28;1.03;;;1.00;;
65567;SDS011;52211;50.154;8.682;2023-04-24T04:16:57;0.80;;;0.80;;
65567;SDS011;52211;50.154;8.682;2023-04-24T04:19:25;1.00;;;1.00;;
65567;SDS011;52211;50.154;8.682;2023-04-24T04:21:56;1.10;;;1.10;;
65567;SDS011;52211;50.154;8.682;2023-04-24T04:24:32;1.20;;;1.20;;
65567;SDS011;52211;50.154;8.682;2023-04-24T04:27:06;1.20;;;1.10;;
65567;SDS011;52211;50.154;8.682;2023-04-24T04:29:45;1.27;;;1.20;;
65567;SDS011;52211;50.154;8.682;2023-04-24T04:32:15;1.30;;;1.30;;
65567;SDS011;52211;50.154;8.682;2023-04-24T04:34:42;1.67;;;1.57;;
65567;SDS011;52211;50.154;8.682;2023-04-24T04:37:15;1.30;;;1.20;;
65567;SDS011;52211;50.154;8.682;2023-04-24T04:39:49;1.20;;;1.20;;
65567;SDS011;52211;50.154;8.682;2023-04-24T04:42:21;1.30;;;1.27;;
65567;SDS011;52211;50.154;8.682;2023-04-24T04:44:49;1.10;;;1.10;;
65567;SDS011;52211;50.154;8.682;2023-04-24T04:47:25;1.37;;;1.37;;
65567;SDS011;52211;50.154;8.682;2023-04-24T04:49:58;1.23;;;1.13;;
65567;SDS011;52211;50.154;8.682;2023-04-24T04:52:31;1.33;;;1.20;;
65567;SDS011;52211;50.154;8.682;2023-04-24T04:55:12;1.40;;;1.30;;
65567;SDS011;52211;50.154;8.682;2023-04-24T04:57:59;1.67;;;1.40;;
65567;SDS011;52211;50.154;8.682;2023-04-24T05:00:33;3.53;;;1.47;;
65567;SDS011;52211;50.154;8.682;2023-04-24T05:03:14;1.27;;;1.23;;
65567;SDS011;52211;50.154;8.682;2023-04-24T05:05:51;1.83;;;1.60;;
65567;SDS011;52211;50.154;8.682;2023-04-24T05:08:21;1.50;;;1.40;;
65567;SDS011;52211;50.154;8.682;2023-04-24T05:10:55;1.40;;;1.30;;
65567;SDS011;52211;50.154;8.682;2023-04-24T05:13:29;1.70;;;1.60;;
65567;SDS011;52211;50.154;8.682;2023-04-24T05:16:08;1.60;;;1.50;;
65567;SDS011;52211;50.154;8.682;2023-04-24T05:18:40;1.47;;;1.37;;
65567;SDS011;52211;50.154;8.682;2023-04-24T05:21:11;1.63;;;1.53;;
65567;SDS011;52211;50.154;8.682;2023-04-24T05:23:40;1.80;;;1.70;;
65567;SDS011;52211;50.154;8.682;2023-04-24T05:26:13;1.40;;;1.37;;
65567;SDS011;52211;50.154;8.682;2023-04-24T05:28:43;1.30;;;1.30;;
65567;SDS011;52211;50.154;8.682;2023-04-24T05:31:16;1.63;;;1.50;;
65567;SDS011;52211;50.154;8.682;2023-04-24T05:33:45;1.77;;;1.50;;
65567;SDS011;52211;50.154;8.682;2023-04-24T05:36:14;1.60;;;1.50;;
65567;SDS011;52211;50.154;8.682;2023-04-24T05:38:41;2.27;;;1.53;;
65567;SDS011;52211;50.154;8.682;2023-04-24T05:41:10;1.83;;;1.73;;
65567;SDS011;52211;50.154;8.682;2023-04-24T05:43:37;1.67;;;1.57;;
65567;SDS011;52211;50.154;8.682;2023-04-24T05:46:04;1.63;;;1.53;;
65567;SDS011;52211;50.154;8.682;2023-04-24T05:48:31;1.97;;;1.87;;
65567;SDS011;52211;50.154;8.682;2023-04-24T05:51:03;1.77;;;1.63;;
65567;SDS011;52211;50.154;8.682;2023-04-24T05:53:35;1.70;;;1.60;;
65567;SDS011;52211;50.154;8.682;2023-04-24T05:56:05;2.20;;;2.00;;
65567;SDS011;52211;50.154;8.682;2023-04-24T05:58:35;1.93;;;1.73;;
65567;SDS011;52211;50.154;8.682;2023-04-24T06:01:04;3.50;;;2.40;;
65567;SDS011;52211;50.154;8.682;2023-04-24T06:03:36;4.47;;;2.93;;
65567;SDS011;52211;50.154;8.682;2023-04-24T06:06:05;2.83;;;2.63;;
65567;SDS011;52211;50.154;8.682;2023-04-24T06:08:34;2.40;;;2.20;;
65567;SDS011;52211;50.154;8.682;2023-04-24T06:11:02;2.10;;;2.00;;
65567;SDS011;52211;50.154;8.682;2023-04-24T06:13:30;2.37;;;2.03;;
65567;SDS011;52211;50.154;8.682;2023-04-24T06:16:23;2.80;;;1.83;;
65567;SDS011;52211;50.154;8.682;2023-04-24T06:18:57;2.00;;;1.90;;
65567;SDS011;52211;50.154;8.682;2023-04-24T06:21:24;2.30;;;2.10;;
65567;SDS011;52211;50.154;8.682;2023-04-24T06:23:51;2.40;;;2.10;;
65567;SDS011;52211;50.154;8.682;2023-04-24T06:26:22;2.23;;;1.93;;
65567;SDS011;52211;50.154;8.682;2023-04-24T06:28:54;2.40;;;2.20;;
65567;SDS011;52211;50.154;8.682;2023-04-24T06:31:25;3.67;;;1.70;;
65567;SDS011;52211;50.154;8.682;2023-04-24T06:33:53;1.90;;;1.80;;
65567;SDS011;52211;50.154;8.682;2023-04-24T06:36:20;3.07;;;2.20;;
65567;SDS011;52211;50.154;8.682;2023-04-24T06:38:47;2.50;;;2.30;;
65567;SDS011;52211;50.154;8.682;2023-04-24T06:41:17;2.27;;;2.10;;
65567;SDS011;52211;50.154;8.682;2023-04-24T06:43:48;8.40;;;2.40;;
65567;SDS011;52211;50.154;8.682;2023-04-24T06:46:15;3.43;;;2.10;;
65567;SDS011;52211;50.154;8.682;2023-04-24T06:48:42;2.63;;;2.40;;
65567;SDS011;52211;50.154;8.682;2023-04-24T06:51:14;3.17;;;2.87;;
65567;SDS011;52211;50.154;8.682;2023-04-24T06:53:44;2.60;;;2.23;;
65567;SDS011;52211;50.154;8.682;2023-04-24T06:56:16;3.60;;;2.50;;
65567;SDS011;52211;50.154;8.682;2023-04-24T06:58:46;3.03;;;2.83;;
65567;SDS011;52211;50.154;8.682;2023-04-24T07:01:15;2.47;;;2.33;;
65567;SDS011;52211;50.154;8.682;2023-04-24T07:03:42;2.43;;;2.23;;
65567;SDS011;52211;50.154;8.682;2023-04-24T07:06:09;2.70;;;2.50;;
65567;SDS011;52211;50.154;8.682;2023-04-24T07:08:38;2.57;;;2.37;;
65567;SDS011;52211;50.154;8.682;2023-04-24T07:11:10;3.53;;;2.87;;
65567;SDS011;52211;50.154;8.682;2023-04-24T07:13:37;2.93;;;2.67;;
65567;SDS011;52211;50.154;8.682;2023-04-24T07:16:10;2.50;;;2.30;;
65567;SDS011;52211;50.154;8.682;2023-04-24T07:18:37;2.70;;;2.50;;
65567;SDS011;52211;50.154;8.682;2023-04-24T07:21:08;2.53;;;2.43;;
65567;SDS011;52211;50.154;8.682;2023-04-24T07:23:37;4.93;;;2.50;;
65567;SDS011;52211;50.154;8.682;2023-04-24T07:26:04;2.80;;;2.60;;
65567;SDS011;52211;50.154;8.682;2023-04-24T07:28:34;3.10;;;2.30;;
65567;SDS011;52211;50.154;8.682;2023-04-24T07:31:01;2.70;;;2.50;;
65567;SDS011;52211;50.154;8.682;2023-04-24T07:33:27;2.50;;;2.33;;
65567;SDS011;52211;50.154;8.682;2023-04-24T07:35:54;2.40;;;2.27;;
65567;SDS011;52211;50.154;8.682;2023-04-24T07:38:24;2.90;;;2.70;;
65567;SDS011;52211;50.154;8.682;2023-04-24T07:40:54;3.30;;;2.10;;
65567;SDS011;52211;50.154;8.682;2023-04-24T07:43:26;2.27;;;2.17;;
65567;SDS011;52211;50.154;8.682;2023-04-24T07:45:55;3.77;;;2.50;;
65567;SDS011;52211;50.154;8.682;2023-04-24T07:48:24;3.90;;;2.37;;
65567;SDS011;52211;50.154;8.682;2023-04-24T07:50:52;2.70;;;2.50;;
65567;SDS011;52211;50.154;8.682;2023-04-24T07:53:22;3.33;;;2.47;;
65567;SDS011;52211;50.154;8.682;2023-04-24T07:55:51;2.57;;;2.37;;
65567;SDS011;52211;50.154;8.682;2023-04-24T07:58:23;2.20;;;2.10;;
65567;SDS011;52211;50.154;8.682;2023-04-24T08:00:52;2.00;;;1.90;;
65567;SDS011;52211;50.154;8.682;2023-04-24T08:03:19;2.50;;;2.30;;
65567;SDS011;52211;50.154;8.682;2023-04-24T08:05:46;5.43;;;2.03;;
65567;SDS011;52211;50.154;8.682;2023-04-24T08:08:21;3.33;;;3.03;;
65567;SDS011;52211;50.154;8.682;2023-04-24T08:10:53;2.43;;;2.07;;
65567;SDS011;52211;50.154;8.682;2023-04-24T08:13:25;3.43;;;1.90;;
65567;SDS011;52211;50.154;8.682;2023-04-24T08:15:52;2.17;;;1.97;;
65567;SDS011;52211;50.154;8.682;2023-04-24T08:18:24;2.40;;;2.20;;
65567;SDS011;52211;50.154;8.682;2023-04-24T08:20:51;2.40;;;2.30;;
65567;SDS011;52211;50.154;8.682;2023-04-24T08:23:22;2.07;;;1.97;;
65567;SDS011;52211;50.154;8.682;2023-04-24T08:25:49;2.20;;;2.00;;
65567;SDS011;52211;50.154;8.682;2023-04-24T08:28:18;2.10;;;1.90;;
65567;SDS011;52211;50.154;8.682;2023-04-24T08:30:48;3.50;;;2.30;;
65567;SDS011;52211;50.154;8.682;2023-04-24T08:33:24;2.97;;;2.77;;
65567;SDS011;52211;50.154;8.682;2023-04-24T08:35:50;3.73;;;2.07;;
65567;SDS011;52211;50.154;8.682;2023-04-24T08:38:18;2.40;;;2.20;;
65567;SDS011;52211;50.154;8.682;2023-04-24T08:40:48;2.80;;;2.60;;
65567;SDS011;52211;50.154;8.682;2023-04-24T08:43:21;2.33;;;2.23;;
65567;SDS011;52211;50.154;8.682;2023-04-24T08:45:51;3.53;;;2.73;;
65567;SDS011;52211;50.154;8.682;2023-04-24T08:48:23;1.97;;;1.87;;
65567;SDS011;52211;50.154;8.682;2023-04-24T08:50:59;2.13;;;2.03;;
65567;SDS011;52211;50.154;8.682;2023-04-24T08:53:27;2.20;;;2.00;;
65567;SDS011;52211;50.154;8.682;2023-04-24T08:55:56;2.17;;;2.00;;
65567;SDS011;52211;50.154;8.682;2023-04-24T08:58:26;2.13;;;2.00;;
65567;SDS011;52211;50.154;8.682;2023-04-24T09:00:57;2.00;;;1.90;;
65567;SDS011;52211;50.154;8.682;2023-04-24T09:03:27;3.33;;;2.47;;
65567;SDS011;52211;50.154;8.682;2023-04-24T09:05:55;2.57;;;2.37;;
65567;SDS011;52211;50.154;8.682;2023-04-24T09:08:28;2.00;;;1.90;;
65567;SDS011;52211;50.154;8.682;2023-04-24T09:10:57;1.93;;;1.83;;
65567;SDS011;52211;50.154;8.682;2023-04-24T09:13:25;2.57;;;2.37;;
65567;SDS011;52211;50.154;8.682;2023-04-24T09:15:54;2.50;;;2.30;;
65567;SDS011;52211;50.154;8.682;2023-04-24T09:18:26;2.70;;;2.30;;
65567;SDS011;52211;50.154;8.682;2023-04-24T09:20:57;4.00;;;2.43;;
65567;SDS011;52211;50.154;8.682;2023-04-24T09:23:33;2.07;;;1.87;;
65567;SDS011;52211;50.154;8.682;2023-04-24T09:26:01;2.63;;;2.43;;
65567;SDS011;52211;50.154;8.682;2023-04-24T09:28:37;2.47;;;2.27;;
65567;SDS011;52211;50.154;8.682;2023-04-24T09:31:13;1.80;;;1.70;;
65567;SDS011;52211;50.154;8.682;2023-04-24T09:36:27;2.67;;;1.83;;
65567;SDS011;52211;50.154;8.682;2023-04-24T09:39:04;2.03;;;1.90;;
65567;SDS011;52211;50.154;8.682;2023-04-24T09:41:50;2.17;;;1.97;;
65567;SDS011;52211;50.154;8.682;2023-04-24T09:44:19;2.10;;;1.90;;
65567;SDS011;52211;50.154;8.682;2023-04-24T09:46:49;2.07;;;1.97;;
65567;SDS011;52211;50.154;8.682;2023-04-24T09:49:21;2.40;;;2.03;;
65567;SDS011;52211;50.154;8.682;2023-04-24T09:52:07;2.53;;;2.33;;
65567;SDS011;52211;50.154;8.682;2023-04-24T09:54:39;2.20;;;1.80;;
65567;SDS011;52211;50.154;8.682;2023-04-24T09:57:08;2.80;;;2.13;;
65567;SDS011;52211;50.154;8.682;2023-04-24T09:59:45;2.10;;;1.90;;
65567;SDS011;52211;50.154;8.682;2023-04-24T10:02:16;1.83;;;1.73;;
65567;SDS011;52211;50.154;8.682;2023-04-24T10:04:54;2.20;;;2.00;;
65567;SDS011;52211;50.154;8.682;2023-04-24T10:07:25;2.17;;;1.87;;
65567;SDS011;52211;50.154;8.682;2023-04-24T10:09:59;2.97;;;1.93;;
65567;SDS011;52211;50.154;8.682;2023-04-24T10:12:31;2.03;;;1.80;;
65567;SDS011;52211;50.154;8.682;2023-04-24T10:14:59;2.27;;;2.07;;
65567;SDS011;52211;50.154;8.682;2023-04-24T10:17:29;1.67;;;1.57;;
65567;SDS011;52211;50.154;8.682;2023-04-24T10:20:01;1.97;;;1.77;;
65567;SDS011;52211;50.154;8.682;2023-04-24T10:22:28;2.33;;;1.80;;
65567;SDS011;52211;50.154;8.682;2023-04-24T10:24:58;1.87;;;1.77;;
65567;SDS011;52211;50.154;8.682;2023-04-24T10:27:35;1.73;;;1.63;;
65567;SDS011;52211;50.154;8.682;2023-04-24T10:30:06;1.60;;;1.50;;
65567;SDS011;52211;50.154;8.682;2023-04-24T10:32:36;1.53;;;1.43;;
65567;SDS011;52211;50.154;8.682;2023-04-24T10:35:10;1.70;;;1.60;;
65567;SDS011;52211;50.154;8.682;2023-04-24T10:37:45;1.70;;;1.60;;
65567;SDS011;52211;50.154;8.682;2023-04-24T10:40:25;2.60;;;1.50;;
65567;SDS011;52211;50.154;8.682;2023-04-24T10:43:03;1.70;;;1.60;;
65567;SDS011;52211;50.154;8.682;2023-04-24T10:45:34;1.70;;;1.60;;
65567;SDS011;52211;50.154;8.682;2023-04-24T10:48:05;1.67;;;1.57;;
65567;SDS011;52211;50.154;8.682;2023-04-24T10:50:47;1.70;;;1.60;;
65567;SDS011;52211;50.154;8.682;2023-04-24T10:53:25;2.60;;;1.90;;
65567;SDS011;52211;50.154;8.682;2023-04-24T10:56:02;2.17;;;1.97;;
65567;SDS011;52211;50.154;8.682;2023-04-24T10:58:37;1.93;;;1.73;;
65567;SDS011;52211;50.154;8.682;2023-04-24T11:01:31;1.73;;;1.63;;
65567;SDS011;52211;50.154;8.682;2023-04-24T11:03:59;2.63;;;2.03;;
65567;SDS011;52211;50.154;8.682;2023-04-24T11:06:33;1.80;;;1.70;;
65567;SDS011;52211;50.154;8.682;2023-04-24T11:09:07;2.47;;;1.93;;
65567;SDS011;52211;50.154;8.682;2023-04-24T11:11:44;1.80;;;1.70;;
65567;SDS011;52211;50.154;8.682;2023-04-24T11:14:15;1.50;;;1.40;;
65567;SDS011;52211;50.154;8.682;2023-04-24T11:16:51;1.77;;;1.67;;
65567;SDS011;52211;50.154;8.682;2023-04-24T11:19:25;2.70;;;1.63;;
65567;SDS011;52211;50.154;8.682;2023-04-24T11:37:53;2.20;;;1.20;;
65567;SDS011;52211;50.154;8.682;2023-04-24T11:40:41;1.83;;;1.23;;
65567;SDS011;52211;50.154;8.682;2023-04-24T11:43:11;1.20;;;1.10;;
65567;SDS011;52211;50.154;8.682;2023-04-24T11:45:47;1.50;;;1.27;;
65567;SDS011;52211;50.154;8.682;2023-04-24T11:48:20;1.20;;;1.20;;
65567;SDS011;52211;50.154;8.682;2023-04-24T11:50:50;1.47;;;1.37;;
65567;SDS011;52211;50.154;8.682;2023-04-24T11:53:22;1.50;;;1.47;;
65567;SDS011;52211;50.154;8.682;2023-04-24T11:55:51;2.40;;;1.40;;
65567;SDS011;52211;50.154;8.682;2023-04-24T11:58:22;1.20;;;1.20;;
65567;SDS011;52211;50.154;8.682;2023-04-24T12:00:56;1.53;;;1.27;;
65567;SDS011;52211;50.154;8.682;2023-04-24T12:03:26;1.10;;;1.10;;
65567;SDS011;52211;50.154;8.682;2023-04-24T12:06:04;1.07;;;1.07;;
65567;SDS011;52211;50.154;8.682;2023-04-24T12:08:36;1.60;;;1.50;;
65567;SDS011;52211;50.154;8.682;2023-04-24T12:11:07;1.60;;;1.50;;
65567;SDS011;52211;50.154;8.682;2023-04-24T12:13:35;1.77;;;1.67;;
65567;SDS011;52211;50.154;8.682;2023-04-24T12:16:04;1.60;;;1.50;;
65567;SDS011;52211;50.154;8.682;2023-04-24T12:18:34;1.47;;;1.37;;
65567;SDS011;52211;50.154;8.682;2023-04-24T12:21:20;1.53;;;1.30;;
65567;SDS011;52211;50.154;8.682;2023-04-24T12:23:55;1.93;;;1.70;;
65567;SDS011;52211;50.154;8.682;2023-04-24T12:26:24;1.30;;;1.20;;
65567;SDS011;52211;50.154;8.682;2023-04-24T12:28:56;1.30;;;1.20;;
65567;SDS011;52211;50.154;8.682;2023-04-24T12:31:34;1.60;;;1.50;;
65567;SDS011;52211;50.154;8.682;2023-04-24T12:34:03;1.10;;;1.10;;
65567;SDS011;52211;50.154;8.682;2023-04-24T12:36:51;1.17;;;1.10;;
65567;SDS011;52211;50.154;8.682;2023-04-24T12:39:19;1.53;;;1.43;;
65567;SDS011;52211;50.154;8.682;2023-04-24T12:41:56;1.40;;;1.30;;
65567;SDS011;52211;50.154;8.682;2023-04-24T12:44:33;1.87;;;1.77;;
65567;SDS011;52211;50.154;8.682;2023-04-24T12:47:03;1.60;;;1.50;;
65567;SDS011;52211;50.154;8.682;2023-04-24T12:49:38;1.50;;;1.40;;
65567;SDS011;52211;50.154;8.682;2023-04-24T12:52:10;1.80;;;1.70;;
65567;SDS011;52211;50.154;8.682;2023-04-24T12:54:36;2.07;;;1.40;;
65567;SDS011;52211;50.154;8.682;2023-04-24T12:57:04;1.93;;;1.83;;
65567;SDS011;52211;50.154;8.682;2023-04-24T12:59:32;1.67;;;1.57;;
65567;SDS011;52211;50.154;8.682;2023-04-24T13:02:04;2.10;;;2.00;;
65567;SDS011;52211;50.154;8.682;2023-04-24T13:04:35;1.73;;;1.63;;
65567;SDS011;52211;50.154;8.682;2023-04-24T13:07:07;2.13;;;1.90;;
65567;SDS011;52211;50.154;8.682;2023-04-24T13:09:34;1.80;;;1.70;;
65567;SDS011;52211;50.154;8.682;2023-04-24T13:12:01;3.13;;;2.20;;
65567;SDS011;52211;50.154;8.682;2023-04-24T13:14:28;2.53;;;2.23;;
65567;SDS011;52211;50.154;8.682;2023-04-24T13:17:03;2.87;;;2.67;;
65567;SDS011;52211;50.154;8.682;2023-04-24T13:19:37;2.00;;;1.90;;
65567;SDS011;52211;50.154;8.682;2023-04-24T13:22:06;2.37;;;2.17;;
65567;SDS011;52211;50.154;8.682;2023-04-24T13:24:38;2.80;;;2.60;;
65567;SDS011;52211;50.154;8.682;2023-04-24T13:27:08;2.83;;;2.53;;
65567;SDS011;52211;50.154;8.682;2023-04-24T13:29:38;2.70;;;2.50;;
65567;SDS011;52211;50.154;8.682;2023-04-24T13:32:05;2.47;;;2.27;;
65567;SDS011;52211;50.154;8.682;2023-04-24T13:34:32;3.03;;;2.40;;
65567;SDS011;52211;50.154;8.682;2023-04-24T13:37:04;2.70;;;2.30;;
65567;SDS011;52211;50.154;8.682;2023-04-24T13:39:39;4.43;;;2.57;;
65567;SDS011;52211;50.154;8.682;2023-04-24T13:42:07;3.03;;;2.50;;
65567;SDS011;52211;50.154;8.682;2023-04-24T13:44:42;3.20;;;2.90;;
65567;SDS011;52211;50.154;8.682;2023-04-24T13:47:11;2.90;;;2.23;;
65567;SDS011;52211;50.154;8.682;2023-04-24T13:49:43;2.33;;;2.23;;
65567;SDS011;52211;50.154;8.682;2023-04-24T13:52:10;2.37;;;2.17;;
65567;SDS011;52211;50.154;8.682;2023-04-24T13:54:42;3.77;;;2.87;;
65567;SDS011;52211;50.154;8.682;2023-04-24T13:57:09;2.97;;;2.77;;
65567;SDS011;52211;50.154;8.682;2023-04-24T13:59:38;2.77;;;2.57;;
65567;SDS011;52211;50.154;8.682;2023-04-24T14:02:07;2.33;;;2.13;;
65567;SDS011;52211;50.154;8.682;2023-04-24T14:04:37;2.87;;;2.67;;
65567;SDS011;52211;50.154;8.682;2023-04-24T14:07:06;2.50;;;2.40;;
65567;SDS011;52211;50.154;8.682;2023-04-24T14:09:38;4.67;;;2.70;;
65567;SDS011;52211;50.154;8.682;2023-04-24T14:12:07;2.50;;;2.30;;
65567;SDS011;52211;50.154;8.682;2023-04-24T14:14:36;2.67;;;2.47;;
65567;SDS011;52211;50.154;8.682;2023-04-24T14:17:08;2.10;;;2.00;;
65567;SDS011;52211;50.154;8.682;2023-04-24T14:19:35;3.33;;;2.40;;
65567;SDS011;52211;50.154;8.682;2023-04-24T14:22:07;2.40;;;2.20;;
65567;SDS011;52211;50.154;8.682;2023-04-24T14:24:33;2.33;;;2.10;;
65567;SDS011;52211;50.154;8.682;2023-04-24T14:27:00;3.30;;;2.47;;
65567;SDS011;52211;50.154;8.682;2023-04-24T14:29:30;2.40;;;2.30;;
65567;SDS011;52211;50.154;8.682;2023-04-24T14:32:00;1.63;;;1.53;;
65567;SDS011;52211;50.154;8.682;2023-04-24T14:34:27;2.23;;;2.03;;
65567;SDS011;52211;50.154;8.682;2023-04-24T14:36:56;2.43;;;2.13;;
65567;SDS011;52211;50.154;8.682;2023-04-24T14:39:29;2.33;;;2.20;;
65567;SDS011;52211;50.154;8.682;2023-04-24T14:41:57;4.10;;;2.57;;
65567;SDS011;52211;50.154;8.682;2023-04-24T14:44:29;1.97;;;1.87;;
65567;SDS011;52211;50.154;8.682;2023-04-24T14:47:00;3.57;;;2.27;;
65567;SDS011;52211;50.154;8.682;2023-04-24T14:49:30;3.70;;;2.17;;
65567;SDS011;52211;50.154;8.682;2023-04-24T14:51:57;2.80;;;2.20;;
65567;SDS011;52211;50.154;8.682;2023-04-24T14:54:26;2.20;;;2.10;;
65567;SDS011;52211;50.154;8.682;2023-04-24T14:56:55;3.40;;;2.00;;
65567;SDS011;52211;50.154;8.682;2023-04-24T14:59:30;2.30;;;2.13;;
65567;SDS011;52211;50.154;8.682;2023-04-24T15:02:00;2.40;;;2.17;;
65567;SDS011;52211;50.154;8.682;2023-04-24T15:04:41;2.77;;;2.30;;
65567;SDS011;52211;50.154;8.682;2023-04-24T15:07:16;3.70;;;2.67;;
65567;SDS011;52211;50.154;8.682;2023-04-24T15:09:43;2.43;;;2.23;;
65567;SDS011;52211;50.154;8.682;2023-04-24T15:12:15;4.27;;;2.47;;
65567;SDS011;52211;50.154;8.682;2023-04-24T15:14:41;2.80;;;2.10;;
65567;SDS011;52211;50.154;8.682;2023-04-24T15:17:15;2.50;;;2.30;;
65567;SDS011;52211;50.154;8.682;2023-04-24T15:19:44;2.70;;;2.50;;
65567;SDS011;52211;50.154;8.682;2023-04-24T15:22:14;2.13;;;1.93;;
65567;SDS011;52211;50.154;8.682;2023-04-24T15:24:41;2.43;;;2.10;;
65567;SDS011;52211;50.154;8.682;2023-04-24T15:27:10;2.40;;;2.20;;
65567;SDS011;52211;50.154;8.682;2023-04-24T15:29:37;2.50;;;2.30;;